createdAt,value
2019-02-18T00:00:00.726Z,5.60
2019-02-18T00:02:51.623Z,5.60
2019-02-18T00:05:40.824Z,5.60
2019-02-18T00:08:29.566Z,5.60
2019-02-18T00:11:18.360Z,5.60
2019-02-18T00:14:07.785Z,5.60
2019-02-18T00:16:57.130Z,5.60
2019-02-18T00:19:46.631Z,5.60
2019-02-18T00:22:35.113Z,5.60
2019-02-18T00:25:24.451Z,5.60
2019-02-18T00:28:13.826Z,5.50
2019-02-18T00:31:02.983Z,5.40
2019-02-18T00:33:52.513Z,5.40
2019-02-18T00:36:41.695Z,5.40
2019-02-18T00:39:31.102Z,5.30
2019-02-18T00:42:20.118Z,5.30
2019-02-18T00:45:15.889Z,5.20
2019-02-18T00:48:05.069Z,5.30
2019-02-18T00:50:54.322Z,5.20
2019-02-18T00:53:43.405Z,5.10
2019-02-18T00:56:32.762Z,5.10
2019-02-18T00:59:21.834Z,5.10
2019-02-18T01:02:11.608Z,5.00
2019-02-18T01:05:01.493Z,5.00
2019-02-18T01:07:50.381Z,5.00
2019-02-18T01:10:39.415Z,5.00
2019-02-18T01:13:28.103Z,5.00
2019-02-18T01:16:17.667Z,5.00
2019-02-18T01:19:06.852Z,5.00
2019-02-18T01:21:56.400Z,5.00
2019-02-18T01:24:45.143Z,5.00
2019-02-18T01:27:34.662Z,4.90
2019-02-18T01:30:23.144Z,4.90
2019-02-18T01:33:12.753Z,4.90
2019-02-18T01:36:01.892Z,4.90
2019-02-18T01:38:50.985Z,4.90
2019-02-18T01:41:39.951Z,4.80
2019-02-18T01:44:29.158Z,4.80
2019-02-18T01:47:18.593Z,4.80
2019-02-18T01:50:13.985Z,4.70
2019-02-18T01:53:02.985Z,4.60
2019-02-18T01:55:52.379Z,4.60
2019-02-18T01:58:41.919Z,4.60
2019-02-18T02:01:30.680Z,4.60
2019-02-18T02:04:19.631Z,4.70
2019-02-18T02:07:08.986Z,4.60
2019-02-18T02:09:58.585Z,4.50
2019-02-18T02:12:48.082Z,4.50
2019-02-18T02:15:37.430Z,4.50
2019-02-18T02:18:26.454Z,4.40
2019-02-18T02:21:15.756Z,4.40
2019-02-18T02:24:05.389Z,4.40
2019-02-18T02:26:54.609Z,4.40
2019-02-18T02:29:43.570Z,4.40
2019-02-18T02:32:32.630Z,4.30
2019-02-18T02:35:22.011Z,4.30
2019-02-18T02:38:11.068Z,4.30
2019-02-18T02:41:00.650Z,4.30
2019-02-18T02:43:49.954Z,4.30
2019-02-18T02:46:39.081Z,4.20
2019-02-18T02:49:27.607Z,4.20
2019-02-18T02:52:16.695Z,4.20
2019-02-18T02:55:06.726Z,4.20
2019-02-18T02:57:56.359Z,4.20
2019-02-18T03:00:44.936Z,4.20
2019-02-18T03:03:34.701Z,4.20
2019-02-18T03:06:24.048Z,4.20
2019-02-18T03:09:13.241Z,4.10
2019-02-18T03:12:02.815Z,4.10
2019-02-18T03:14:52.149Z,4.10
2019-02-18T03:17:41.362Z,4.00
2019-02-18T03:20:30.478Z,4.00
2019-02-18T03:23:19.893Z,4.00
2019-02-18T03:26:09.158Z,4.00
2019-02-18T03:29:37.547Z,4.00
2019-02-18T03:32:26.677Z,3.90
2019-02-18T03:35:15.781Z,3.90
2019-02-18T03:38:05.036Z,3.90
2019-02-18T03:41:02.901Z,3.90
2019-02-18T03:43:45.024Z,3.90
2019-02-18T03:46:33.867Z,3.90
2019-02-18T03:49:23.359Z,3.90
2019-02-18T03:52:11.759Z,3.90
2019-02-18T03:55:01.846Z,3.90
2019-02-18T03:57:50.934Z,4.00
2019-02-18T04:00:39.922Z,4.00
2019-02-18T04:03:28.462Z,4.00
2019-02-18T04:06:17.741Z,4.00
2019-02-18T04:09:06.963Z,4.00
2019-02-18T04:11:55.876Z,4.10
2019-02-18T04:14:45.168Z,4.20
2019-02-18T04:17:34.522Z,4.30
2019-02-18T04:20:24.097Z,4.30
2019-02-18T04:23:13.869Z,4.10
2019-02-18T04:26:02.925Z,4.20
2019-02-18T04:28:52.207Z,4.20
2019-02-18T04:31:41.157Z,4.10
2019-02-18T04:34:30.536Z,4.10
2019-02-18T04:37:19.689Z,4.10
2019-02-18T04:40:10.111Z,4.00
2019-02-18T04:42:59.384Z,4.00
2019-02-18T04:45:48.161Z,3.90
2019-02-18T04:48:39.014Z,3.90
2019-02-18T04:51:28.118Z,3.90
2019-02-18T04:54:16.962Z,3.90
2019-02-18T04:57:06.493Z,3.90
2019-02-18T04:59:55.704Z,3.90
2019-02-18T05:02:44.972Z,4.00
2019-02-18T05:05:33.629Z,4.00
2019-02-18T05:08:22.549Z,4.00
2019-02-18T05:11:11.759Z,3.90
2019-02-18T05:14:00.709Z,4.10
2019-02-18T05:16:49.890Z,4.00
2019-02-18T05:19:39.131Z,4.00
2019-02-18T05:22:28.440Z,4.00
2019-02-18T05:25:17.543Z,3.90
2019-02-18T05:28:06.872Z,4.10
2019-02-18T05:30:56.055Z,4.30
2019-02-18T05:33:45.146Z,4.40
2019-02-18T05:36:34.365Z,4.50
2019-02-18T05:39:23.289Z,4.50
2019-02-18T05:42:12.803Z,4.60
2019-02-18T05:45:01.720Z,4.60
2019-02-18T05:47:51.035Z,4.60
2019-02-18T05:50:40.291Z,4.60
2019-02-18T05:53:29.881Z,4.70
2019-02-18T05:56:19.101Z,4.70
2019-02-18T05:59:08.624Z,4.60
2019-02-18T06:01:57.658Z,4.60
2019-02-18T06:04:47.492Z,4.60
2019-02-18T06:07:36.818Z,4.60
2019-02-18T06:10:25.609Z,4.50
2019-02-18T06:13:14.983Z,4.50
2019-02-18T06:16:04.601Z,4.40
2019-02-18T06:18:53.397Z,4.30
2019-02-18T06:21:42.695Z,4.20
2019-02-18T06:24:31.547Z,4.20
2019-02-18T06:27:21.113Z,4.10
2019-02-18T06:30:11.647Z,4.10
2019-02-18T06:33:01.219Z,4.00
2019-02-18T06:35:50.793Z,4.00
2019-02-18T06:38:40.340Z,4.10
2019-02-18T06:41:29.918Z,4.10
2019-02-18T06:44:20.641Z,4.10
2019-02-18T06:47:10.504Z,4.20
2019-02-18T06:49:59.223Z,4.20
2019-02-18T06:52:48.560Z,4.20
2019-02-18T06:55:37.869Z,4.20
2019-02-18T06:58:28.001Z,4.20
2019-02-18T07:01:18.772Z,4.30
2019-02-18T07:04:17.640Z,4.50
2019-02-18T07:07:11.133Z,4.90
2019-02-18T07:10:01.968Z,5.00
2019-02-18T07:12:51.116Z,5.10
2019-02-18T07:15:40.360Z,5.30
2019-02-18T07:18:29.604Z,5.30
2019-02-18T07:21:19.041Z,5.50
2019-02-18T07:24:08.618Z,5.60
2019-02-18T07:26:57.698Z,5.70
2019-02-18T07:29:46.541Z,5.70
2019-02-18T07:32:35.903Z,5.90
2019-02-18T07:35:25.417Z,6.10
2019-02-18T07:38:14.482Z,6.30
2019-02-18T07:41:03.114Z,6.40
2019-02-18T07:43:52.205Z,6.30
2019-02-18T07:46:41.854Z,6.20
2019-02-18T07:49:31.098Z,6.20
2019-02-18T07:52:20.602Z,6.10
2019-02-18T07:55:11.174Z,6.20
2019-02-18T07:58:00.161Z,6.20
2019-02-18T08:00:48.573Z,6.30
2019-02-18T08:03:39.623Z,6.40
2019-02-18T08:06:27.580Z,6.50
2019-02-18T08:09:15.698Z,6.70
2019-02-18T08:12:03.978Z,6.80
2019-02-18T08:14:52.426Z,6.90
2019-02-18T08:17:41.131Z,7.10
2019-02-18T08:20:29.366Z,7.20
2019-02-18T08:23:18.265Z,7.30
2019-02-18T08:26:07.463Z,7.40
2019-02-18T08:28:55.883Z,7.60
2019-02-18T08:31:44.320Z,7.70
2019-02-18T08:34:32.785Z,7.80
2019-02-18T08:37:20.920Z,7.90
2019-02-18T08:40:10.097Z,8.00
2019-02-18T08:42:57.954Z,8.10
2019-02-18T08:45:46.272Z,8.20
2019-02-18T08:48:34.812Z,8.30
2019-02-18T08:51:22.608Z,8.50
2019-02-18T08:54:10.908Z,8.60
2019-02-18T08:56:59.304Z,8.70
2019-02-18T08:59:47.917Z,8.80
2019-02-18T09:02:36.240Z,9.00
2019-02-18T09:05:24.199Z,9.10
2019-02-18T09:08:12.166Z,9.10
2019-02-18T09:11:00.380Z,9.20
2019-02-18T09:13:48.870Z,9.30
2019-02-18T09:16:37.156Z,9.40
2019-02-18T09:19:25.499Z,9.40
2019-02-18T09:22:31.492Z,9.50
2019-02-18T09:25:24.143Z,9.60
2019-02-18T09:28:12.488Z,9.70
2019-02-18T09:31:01.241Z,9.80
2019-02-18T09:33:48.872Z,9.90
2019-02-18T09:36:37.230Z,9.90
2019-02-18T09:39:31.115Z,10.00
2019-02-18T09:42:15.455Z,10.10
2019-02-18T09:45:06.862Z,10.20
2019-02-18T09:47:56.352Z,10.30
2019-02-18T09:50:44.325Z,10.30
2019-02-18T09:53:32.637Z,10.40
2019-02-18T09:56:20.869Z,10.50
2019-02-18T09:59:09.230Z,10.50
2019-02-18T10:01:57.894Z,10.60
2019-02-18T10:04:46.639Z,10.70
2019-02-18T10:07:34.966Z,10.90
2019-02-18T10:10:24.461Z,11.00
2019-02-18T10:13:12.250Z,11.20
2019-02-18T10:16:00.850Z,11.30
2019-02-18T10:18:48.868Z,11.40
2019-02-18T10:21:37.339Z,11.50
2019-02-18T10:24:25.810Z,11.60
2019-02-18T10:27:13.926Z,11.70
2019-02-18T10:30:02.290Z,11.80
2019-02-18T10:32:50.633Z,11.80
2019-02-18T10:35:39.088Z,11.90
2019-02-18T10:38:27.799Z,11.90
2019-02-18T10:41:16.302Z,11.90
2019-02-18T10:44:04.830Z,11.90
2019-02-18T10:46:53.501Z,11.90
2019-02-18T10:49:41.587Z,11.90
2019-02-18T10:52:29.989Z,12.00
2019-02-18T10:55:18.428Z,12.00
2019-02-18T10:58:07.095Z,12.00
2019-02-18T11:00:55.235Z,12.10
2019-02-18T11:03:43.365Z,12.10
2019-02-18T11:06:31.218Z,12.20
2019-02-18T11:09:19.669Z,12.30
2019-02-18T11:12:08.016Z,12.40
2019-02-18T11:14:56.667Z,12.50
2019-02-18T11:17:45.638Z,12.60
2019-02-18T11:20:33.428Z,12.60
2019-02-18T11:23:21.515Z,12.60
2019-02-18T11:26:10.110Z,12.70
2019-02-18T11:28:58.415Z,12.80
2019-02-18T11:31:46.293Z,12.90
2019-02-18T11:34:34.797Z,12.90
2019-02-18T11:37:23.200Z,12.90
2019-02-18T11:40:16.607Z,13.00
2019-02-18T11:43:04.726Z,13.20
2019-02-18T11:45:53.670Z,13.40
2019-02-18T11:48:42.348Z,13.50
2019-02-18T11:51:31.247Z,13.50
2019-02-18T11:54:20.494Z,13.50
2019-02-18T11:57:08.483Z,13.70
2019-02-18T11:59:56.990Z,13.70
2019-02-18T12:02:45.401Z,13.70
2019-02-18T12:05:33.690Z,13.70
2019-02-18T12:08:22.981Z,13.70
2019-02-18T12:11:12.027Z,13.90
2019-02-18T12:14:00.930Z,14.00
2019-02-18T12:16:50.250Z,14.00
2019-02-18T12:19:39.473Z,14.10
2019-02-18T12:22:28.601Z,14.30
2019-02-18T12:25:17.958Z,14.30
2019-02-18T12:28:07.067Z,14.30
2019-02-18T12:30:56.290Z,14.40
2019-02-18T12:33:46.043Z,14.60
2019-02-18T12:36:34.626Z,14.60
2019-02-18T12:39:22.922Z,14.70
2019-02-18T12:42:11.327Z,14.70
2019-02-18T12:45:00.216Z,14.70
2019-02-18T12:47:49.552Z,14.80
2019-02-18T12:50:38.924Z,14.70
2019-02-18T12:53:27.879Z,14.80
2019-02-18T12:56:16.151Z,14.90
2019-02-18T12:59:05.339Z,15.00
2019-02-18T13:01:53.751Z,15.00
2019-02-18T13:04:42.176Z,15.00
2019-02-18T13:07:30.719Z,15.00
2019-02-18T13:10:18.923Z,15.10
2019-02-18T13:13:06.943Z,15.10
2019-02-18T13:15:54.806Z,15.10
2019-02-18T13:18:43.021Z,15.20
2019-02-18T13:21:31.183Z,15.10
2019-02-18T13:24:19.554Z,15.10
2019-02-18T13:27:07.842Z,15.20
2019-02-18T13:29:56.322Z,15.20
2019-02-18T13:32:45.370Z,15.20
2019-02-18T13:35:33.643Z,15.10
2019-02-18T13:38:21.967Z,15.10
2019-02-18T13:41:09.816Z,15.10
2019-02-18T13:43:58.172Z,15.00
2019-02-18T13:46:46.399Z,15.00
2019-02-18T13:49:34.949Z,15.10
2019-02-18T13:52:23.283Z,15.10
2019-02-18T13:55:15.237Z,15.10
2019-02-18T13:58:04.087Z,15.00
2019-02-18T14:00:51.976Z,15.00
2019-02-18T14:03:40.302Z,15.00
2019-02-18T14:06:28.603Z,14.90
2019-02-18T14:09:17.584Z,14.90
2019-02-18T14:12:06.310Z,14.90
2019-02-18T14:14:54.589Z,14.80
2019-02-18T14:17:42.769Z,15.00
2019-02-18T14:20:30.974Z,15.70
2019-02-18T14:23:19.603Z,16.10
2019-02-18T14:26:08.084Z,16.50
2019-02-18T14:28:56.346Z,16.10
2019-02-18T14:31:44.428Z,15.70
2019-02-18T14:34:32.814Z,15.30
2019-02-18T14:37:20.723Z,15.10
2019-02-18T14:40:10.555Z,14.90
2019-02-18T14:42:58.798Z,14.80
2019-02-18T14:45:46.722Z,14.70
2019-02-18T14:48:34.735Z,14.60
2019-02-18T14:51:23.825Z,14.60
2019-02-18T14:54:11.886Z,14.50
2019-02-18T14:57:00.028Z,14.40
2019-02-18T14:59:48.510Z,14.30
2019-02-18T15:02:37.595Z,14.30
2019-02-18T15:05:26.365Z,14.20
2019-02-18T15:08:15.034Z,14.20
2019-02-18T15:11:03.393Z,14.10
2019-02-18T15:13:51.609Z,14.10
2019-02-18T15:16:40.131Z,14.00
2019-02-18T15:19:28.935Z,13.90
2019-02-18T15:22:17.497Z,13.90
2019-02-18T15:25:08.159Z,13.90
2019-02-18T15:27:56.239Z,13.80
2019-02-18T15:30:44.471Z,13.70
2019-02-18T15:33:32.733Z,13.70
2019-02-18T15:36:21.006Z,13.70
2019-02-18T15:39:09.338Z,13.60
2019-02-18T15:41:57.324Z,13.50
2019-02-18T15:44:45.667Z,13.40
2019-02-18T15:47:34.360Z,13.40
2019-02-18T15:50:23.226Z,13.20
2019-02-18T15:53:11.533Z,13.10
2019-02-18T15:55:59.728Z,12.90
2019-02-18T15:58:47.962Z,12.80
2019-02-18T16:01:36.336Z,12.70
2019-02-18T16:04:24.976Z,12.80
2019-02-18T16:07:12.967Z,12.80
2019-02-18T16:10:03.089Z,12.70
2019-02-18T16:12:52.419Z,12.50
2019-02-18T16:15:41.625Z,12.40
2019-02-18T16:18:29.987Z,12.30
2019-02-18T16:21:19.075Z,12.20
2019-02-18T16:24:07.502Z,12.10
2019-02-18T16:26:55.446Z,12.10
2019-02-18T16:29:43.563Z,12.00
2019-02-18T16:32:31.754Z,11.90
2019-02-18T16:35:20.480Z,11.90
2019-02-18T16:38:08.489Z,11.60
2019-02-18T16:40:58.500Z,11.50
2019-02-18T16:43:46.541Z,11.30
2019-02-18T16:46:34.768Z,11.10
2019-02-18T16:49:24.432Z,11.00
2019-02-18T16:52:13.127Z,10.90
2019-02-18T16:55:02.083Z,10.90
2019-02-18T16:57:50.104Z,10.90
2019-02-18T17:00:39.696Z,10.90
2019-02-18T17:03:28.649Z,10.90
2019-02-18T17:06:18.339Z,10.90
2019-02-18T17:09:12.801Z,10.80
2019-02-18T17:12:02.711Z,10.70
2019-02-18T17:14:52.015Z,10.60
2019-02-18T17:17:41.050Z,10.40
2019-02-18T17:20:29.822Z,10.30
2019-02-18T17:23:19.377Z,10.20
2019-02-18T17:26:07.930Z,10.20
2019-02-18T17:28:57.278Z,10.20
2019-02-18T17:31:46.375Z,10.10
2019-02-18T17:34:35.723Z,10.10
2019-02-18T17:37:24.915Z,9.90
2019-02-18T17:40:15.088Z,9.90
2019-02-18T17:43:04.261Z,9.80
2019-02-18T17:45:53.632Z,9.70
2019-02-18T17:48:42.910Z,9.70
2019-02-18T17:51:32.378Z,9.60
2019-02-18T17:54:21.332Z,9.60
2019-02-18T17:57:10.734Z,9.60
2019-02-18T17:59:59.580Z,9.50
2019-02-18T18:02:48.546Z,9.40
2019-02-18T18:05:37.395Z,9.40
2019-02-18T18:08:26.365Z,9.40
2019-02-18T18:11:14.875Z,9.30
2019-02-18T18:14:04.309Z,9.30
2019-02-18T18:16:53.551Z,9.10
2019-02-18T18:19:42.528Z,9.10
2019-02-18T18:22:32.344Z,9.00
2019-02-18T18:25:21.418Z,9.00
2019-02-18T18:28:10.731Z,9.00
2019-02-18T18:31:00.075Z,9.00
2019-02-18T18:33:49.680Z,8.90
2019-02-18T18:36:39.052Z,8.90
2019-02-18T18:39:28.318Z,8.90
2019-02-18T18:42:17.694Z,8.90
2019-02-18T18:45:10.647Z,8.90
2019-02-18T18:48:00.021Z,8.80
2019-02-18T18:50:49.870Z,8.80
2019-02-18T18:53:39.175Z,8.70
2019-02-18T18:56:28.205Z,8.70
2019-02-18T18:59:17.715Z,8.60
2019-02-18T19:02:07.300Z,8.60
2019-02-18T19:04:56.455Z,8.60
2019-02-18T19:07:45.436Z,8.50
2019-02-18T19:10:34.794Z,8.50
2019-02-18T19:13:23.960Z,8.50
2019-02-18T19:16:12.758Z,8.50
2019-02-18T19:19:02.986Z,8.40
2019-02-18T19:21:51.817Z,8.40
2019-02-18T19:24:40.927Z,8.40
2019-02-18T19:27:29.897Z,8.30
2019-02-18T19:30:25.919Z,8.30
2019-02-18T19:33:14.784Z,8.20
2019-02-18T19:36:03.732Z,8.20
2019-02-18T19:38:53.632Z,8.20
2019-02-18T19:41:42.683Z,8.10
2019-02-18T19:44:32.274Z,8.00
2019-02-18T19:47:21.450Z,8.00
2019-02-18T19:50:10.910Z,7.90
2019-02-18T19:53:00.201Z,7.80
2019-02-18T19:55:49.651Z,7.80
2019-02-18T19:58:38.580Z,7.70
2019-02-18T20:01:28.196Z,7.70
2019-02-18T20:04:17.643Z,7.80
2019-02-18T20:07:06.424Z,7.80
2019-02-18T20:09:55.248Z,7.80
2019-02-18T20:12:44.451Z,7.80
2019-02-18T20:15:33.696Z,7.80
2019-02-18T20:18:22.363Z,7.70
2019-02-18T20:21:11.552Z,7.60
2019-02-18T20:24:00.041Z,7.60
2019-02-18T20:26:49.035Z,7.70
2019-02-18T20:29:38.116Z,7.60
2019-02-18T20:32:27.547Z,7.60
2019-02-18T20:35:16.633Z,7.50
2019-02-18T20:38:05.779Z,7.40
2019-02-18T20:40:54.936Z,7.40
2019-02-18T20:43:43.654Z,7.30
2019-02-18T20:46:33.235Z,7.30
2019-02-18T20:49:22.424Z,7.20
2019-02-18T20:52:13.701Z,7.20
2019-02-18T20:55:03.559Z,7.30
2019-02-18T20:57:52.623Z,7.20
2019-02-18T21:00:41.929Z,7.10
2019-02-18T21:03:31.523Z,7.00
2019-02-18T21:06:20.905Z,6.90
2019-02-18T21:09:10.152Z,6.80
2019-02-18T21:11:59.528Z,6.70
2019-02-18T21:14:47.978Z,6.70
2019-02-18T21:17:38.581Z,6.70
2019-02-18T21:20:27.489Z,6.70
2019-02-18T21:23:17.010Z,6.70
2019-02-18T21:26:06.496Z,6.70
2019-02-18T21:28:55.763Z,6.70
2019-02-18T21:31:44.209Z,6.80
2019-02-18T21:34:33.482Z,6.80
2019-02-18T21:37:22.537Z,6.90
2019-02-18T21:40:13.521Z,6.90
2019-02-18T21:43:02.535Z,7.00
2019-02-18T21:45:51.722Z,7.00
2019-02-18T21:48:40.964Z,7.10
2019-02-18T21:51:29.957Z,7.10
2019-02-18T21:54:19.285Z,7.20
2019-02-18T21:57:08.549Z,7.20
2019-02-18T21:59:57.519Z,7.10
2019-02-18T22:02:47.256Z,7.10
2019-02-18T22:05:37.336Z,7.10
2019-02-18T22:08:26.144Z,7.20
2019-02-18T22:11:15.015Z,7.20
2019-02-18T22:14:04.190Z,7.40
2019-02-18T22:16:53.151Z,7.40
2019-02-18T22:19:42.401Z,7.40
2019-02-18T22:22:31.526Z,7.40
2019-02-18T22:25:20.331Z,7.40
2019-02-18T22:28:09.604Z,7.30
2019-02-18T22:30:58.635Z,7.20
2019-02-18T22:33:47.417Z,7.30
2019-02-18T22:36:36.519Z,7.30
2019-02-18T22:39:26.158Z,7.30
2019-02-18T22:42:15.226Z,7.30
2019-02-18T22:45:05.928Z,7.20
2019-02-18T22:47:54.788Z,7.20
2019-02-18T22:50:44.264Z,7.20
2019-02-18T22:53:34.100Z,7.10
2019-02-18T22:56:22.873Z,7.10
2019-02-18T22:59:12.681Z,7.00
2019-02-18T23:02:01.856Z,7.00
2019-02-18T23:04:51.115Z,6.90
2019-02-18T23:07:40.406Z,6.90
2019-02-18T23:10:30.070Z,6.90
2019-02-18T23:13:19.243Z,7.00
2019-02-18T23:16:07.979Z,7.10
2019-02-18T23:18:57.064Z,7.10
2019-02-18T23:21:47.363Z,7.00
2019-02-18T23:24:36.730Z,7.00
2019-02-18T23:27:25.861Z,7.00
2019-02-18T23:30:16.374Z,6.90
2019-02-18T23:33:05.407Z,6.90
2019-02-18T23:35:54.730Z,6.90
2019-02-18T23:38:43.489Z,7.00
2019-02-18T23:41:32.656Z,6.90
2019-02-18T23:44:21.947Z,7.00
2019-02-18T23:47:11.498Z,7.00
2019-02-18T23:50:01.005Z,7.00
2019-02-18T23:52:50.546Z,7.00
2019-02-18T23:55:39.731Z,7.00
2019-02-18T23:58:29.055Z,6.90
